Time;durP1;ratioP1;P1;durP2;ratioP2;P2;SDS_P1;SDS_P2;PMS_P1;PMS_P2;Temp;Humidity;BMP_temperature;BMP_pressure;BME280_temperature;BME280_humidity;BME280_pressure;Samples;Min_cycle;Max_cycle;Signal;HPM_P1;HPM_P2
2022/03/08 00:01:59;;;;;;;17.40;7.43;;;1.80;99.90;;;;;;5092641;28;20039;-44
2022/03/08 00:04:25;;;;;;;14.95;7.13;;;1.80;99.90;;;;;;5092632;28;20040;-46
2022/03/08 00:06:51;;;;;;;15.27;7.78;;;1.80;99.90;;;;;;5092576;28;20040;-42
2022/03/08 00:09:17;;;;;;;14.27;7.95;;;1.80;99.90;;;;;;5092327;28;20060;-42
2022/03/08 00:11:43;;;;;;;15.35;7.43;;;1.80;99.90;;;;;;5092436;28;20063;-45
2022/03/08 00:14:08;;;;;;;15.70;7.65;;;1.70;99.90;;;;;;5092381;28;20060;-43
2022/03/08 00:16:34;;;;;;;16.27;7.28;;;1.70;99.90;;;;;;5091759;28;20044;-45
2022/03/08 00:19:00;;;;;;;13.88;7.18;;;1.60;99.90;;;;;;5092106;28;20198;-44
2022/03/08 00:21:26;;;;;;;17.63;8.23;;;1.60;99.90;;;;;;5091706;28;20032;-43
2022/03/08 00:23:51;;;;;;;14.82;7.60;;;1.60;99.90;;;;;;5091912;28;20077;-45
2022/03/08 00:26:17;;;;;;;12.95;7.47;;;1.50;99.90;;;;;;5091635;28;20053;-45
2022/03/08 00:28:43;;;;;;;14.77;7.68;;;1.50;99.90;;;;;;5092176;28;20071;-44
2022/03/08 00:31:08;;;;;;;16.10;8.15;;;1.50;99.90;;;;;;5090290;28;20040;-46
2022/03/08 00:33:34;;;;;;;15.50;8.07;;;1.50;99.90;;;;;;5088304;28;20510;-44
2022/03/08 00:36:00;;;;;;;15.27;7.80;;;1.50;99.90;;;;;;5090531;28;20072;-44
2022/03/08 00:38:27;;;;;;;14.80;7.60;;;1.50;99.90;;;;;;5091801;28;20036;-42
2022/03/08 00:40:52;;;;;;;15.50;8.20;;;1.50;99.90;;;;;;5091888;28;20047;-44
2022/03/08 00:43:18;;;;;;;16.90;8.23;;;1.50;99.90;;;;;;5091888;28;20483;-43
2022/03/08 00:45:44;;;;;;;17.23;8.05;;;1.40;99.90;;;;;;5091391;28;20051;-44
2022/03/08 00:48:10;;;;;;;14.48;7.72;;;1.40;99.90;;;;;;5091741;28;20024;-43
2022/03/08 00:50:38;;;;;;;15.15;7.72;;;1.40;99.90;;;;;;5091778;28;20039;-44
2022/03/08 00:53:03;;;;;;;16.50;8.18;;;1.30;99.90;;;;;;5091215;28;20139;-44
2022/03/08 00:55:31;;;;;;;13.80;7.53;;;1.40;99.90;;;;;;5091377;28;20126;-44
2022/03/08 00:57:57;;;;;;;17.13;8.52;;;1.30;99.90;;;;;;5084979;28;20449;-43
2022/03/08 01:00:25;;;;;;;15.70;7.93;;;1.30;99.90;;;;;;5091008;28;20036;-41
2022/03/08 01:02:50;;;;;;;14.40;8.05;;;1.20;99.90;;;;;;5089940;28;20040;-42
2022/03/08 01:05:16;;;;;;;15.00;8.25;;;1.30;99.90;;;;;;5091322;28;20127;-42
2022/03/08 01:07:43;;;;;;;17.98;8.50;;;1.30;99.90;;;;;;5091296;28;20084;-44
2022/03/08 01:10:11;;;;;;;15.07;8.25;;;1.20;99.90;;;;;;5089752;28;20083;-45
2022/03/08 01:12:38;;;;;;;14.73;8.10;;;1.20;99.90;;;;;;5091287;28;20044;-42
2022/03/08 01:15:05;;;;;;;17.77;8.52;;;1.20;99.90;;;;;;5090813;28;20062;-42
2022/03/08 01:17:31;;;;;;;17.55;8.38;;;1.20;99.90;;;;;;5089413;28;20044;-41
2022/03/08 01:19:57;;;;;;;17.33;8.38;;;1.20;99.90;;;;;;5089680;28;20081;-42
2022/03/08 01:22:23;;;;;;;16.58;8.90;;;1.20;99.90;;;;;;5090899;28;20449;-42
2022/03/08 01:24:49;;;;;;;15.55;9.07;;;1.20;99.90;;;;;;5091143;28;20056;-43
2022/03/08 01:27:16;;;;;;;16.90;8.52;;;1.20;99.90;;;;;;5088336;28;20080;-42
2022/03/08 01:29:41;;;;;;;15.02;8.48;;;1.10;99.90;;;;;;5090867;28;20094;-43
2022/03/08 01:32:08;;;;;;;15.40;8.25;;;1.10;99.90;;;;;;5090978;28;20068;-43
2022/03/08 01:34:34;;;;;;;15.35;8.38;;;1.10;99.90;;;;;;5090832;28;20071;-41
2022/03/08 01:37:01;;;;;;;17.02;8.82;;;1.00;99.90;;;;;;5090707;28;20074;-43
2022/03/08 01:39:26;;;;;;;16.77;9.50;;;1.00;99.90;;;;;;5089083;28;20039;-43
2022/03/08 01:41:52;;;;;;;19.83;9.77;;;1.00;99.90;;;;;;5090761;28;20034;-44
2022/03/08 01:44:19;;;;;;;17.25;9.32;;;1.00;99.90;;;;;;5090442;28;20036;-46
2022/03/08 01:46:45;;;;;;;16.13;9.13;;;0.90;99.90;;;;;;5090281;28;20118;-44
2022/03/08 01:49:11;;;;;;;19.08;10.10;;;0.90;99.90;;;;;;5090815;28;20127;-43
2022/03/08 01:51:37;;;;;;;16.67;9.55;;;0.90;99.90;;;;;;5090015;28;20040;-44
2022/03/08 01:54:04;;;;;;;15.65;8.93;;;0.80;99.90;;;;;;5090601;28;20075;-45
2022/03/08 01:56:30;;;;;;;18.50;9.35;;;0.80;99.90;;;;;;5090710;28;20031;-47
2022/03/08 01:58:56;;;;;;;17.27;9.23;;;0.70;99.90;;;;;;5090710;28;20118;-40
2022/03/08 02:01:22;;;;;;;18.48;8.95;;;0.70;99.90;;;;;;5090146;28;20169;-42
2022/03/08 02:03:48;;;;;;;18.23;9.48;;;0.70;99.90;;;;;;5085497;28;20123;-42
2022/03/08 02:06:14;;;;;;;19.42;10.13;;;0.70;99.90;;;;;;5090555;28;20032;-46
2022/03/08 02:08:41;;;;;;;17.50;9.30;;;0.60;99.90;;;;;;5089735;28;20062;-44
2022/03/08 02:11:07;;;;;;;17.73;9.55;;;0.60;99.90;;;;;;5090470;28;20036;-44
2022/03/08 02:13:32;;;;;;;19.30;9.20;;;0.60;99.90;;;;;;5090367;28;20487;-44
2022/03/08 02:15:58;;;;;;;16.73;8.93;;;0.50;99.90;;;;;;5090294;28;20040;-44
2022/03/08 02:18:24;;;;;;;19.63;9.85;;;0.40;99.90;;;;;;5090389;28;20180;-43
2022/03/08 02:20:50;;;;;;;17.40;9.93;;;0.40;99.90;;;;;;5089148;28;20090;-45
2022/03/08 02:23:16;;;;;;;17.92;9.15;;;0.40;99.90;;;;;;5088713;28;20044;-42
2022/03/08 02:25:42;;;;;;;19.10;10.00;;;0.40;99.90;;;;;;5090391;28;20061;-43
2022/03/08 02:28:08;;;;;;;19.40;9.80;;;0.40;99.90;;;;;;5089813;28;20102;-44
2022/03/08 02:30:34;;;;;;;18.50;10.18;;;0.40;99.90;;;;;;5090294;28;20501;-41
2022/03/08 02:32:59;;;;;;;17.88;9.32;;;0.30;99.90;;;;;;5089966;28;20119;-44
2022/03/08 02:35:28;;;;;;;20.90;10.00;;;0.30;99.90;;;;;;5089970;28;20244;-41
2022/03/08 02:37:57;;;;;;;21.42;10.10;;;0.30;99.90;;;;;;5091193;28;20063;-44
2022/03/08 02:40:26;;;;;;;19.60;10.10;;;0.30;99.90;;;;;;5094234;28;20039;-44
2022/03/08 02:42:52;;;;;;;19.65;9.60;;;0.30;99.90;;;;;;5094446;28;20082;-43
2022/03/08 02:45:18;;;;;;;19.27;9.77;;;0.30;99.90;;;;;;5094030;28;20076;-44
2022/03/08 02:47:45;;;;;;;19.05;10.43;;;0.20;99.90;;;;;;5091788;28;20525;-45
2022/03/08 02:50:14;;;;;;;17.65;9.48;;;0.20;99.90;;;;;;5092950;28;20061;-43
2022/03/08 02:52:42;;;;;;;18.15;10.15;;;0.20;99.90;;;;;;5092826;28;20044;-42
2022/03/08 02:55:09;;;;;;;21.95;10.75;;;0.20;99.90;;;;;;5093690;28;20072;-43
2022/03/08 02:57:35;;;;;;;17.85;10.15;;;0.20;99.90;;;;;;5093940;28;20052;-42
2022/03/08 03:00:02;;;;;;;19.90;10.77;;;0.20;99.90;;;;;;5093975;28;20111;-43
2022/03/08 03:02:28;;;;;;;19.65;9.80;;;0.20;99.90;;;;;;5092431;28;20039;-42
2022/03/08 03:04:54;;;;;;;21.00;10.98;;;0.10;99.90;;;;;;5092258;28;20040;-47
2022/03/08 03:07:23;;;;;;;18.65;10.40;;;0.10;99.90;;;;;;5093478;28;20562;-42
2022/03/08 03:09:50;;;;;;;20.73;10.80;;;0.10;99.90;;;;;;5092377;28;20032;-42
2022/03/08 03:12:16;;;;;;;19.30;10.68;;;0.10;99.90;;;;;;5093253;28;20032;-42
2022/03/08 03:14:41;;;;;;;19.13;10.27;;;0.10;99.90;;;;;;5093708;28;20088;-44
2022/03/08 03:17:08;;;;;;;21.83;11.85;;;0.00;99.90;;;;;;5093457;28;20048;-45
2022/03/08 03:19:33;;;;;;;18.67;10.95;;;0.10;99.90;;;;;;5093238;28;20153;-41
2022/03/08 03:21:59;;;;;;;21.77;11.55;;;0.10;99.90;;;;;;5093161;28;20123;-45
2022/03/08 03:24:25;;;;;;;19.25;10.88;;;0.20;99.90;;;;;;5093397;28;20044;-46
2022/03/08 03:26:50;;;;;;;20.08;11.10;;;0.20;99.90;;;;;;5091835;28;20052;-42
2022/03/08 03:29:16;;;;;;;21.27;11.23;;;0.20;99.90;;;;;;5093148;28;20036;-42
2022/03/08 03:31:42;;;;;;;20.35;11.45;;;0.20;99.90;;;;;;5093049;28;20073;-44
2022/03/08 03:34:07;;;;;;;20.55;11.00;;;0.20;99.90;;;;;;5090184;28;20059;-43
2022/03/08 03:36:33;;;;;;;22.55;12.00;;;0.30;99.90;;;;;;5091870;28;20492;-46
2022/03/08 03:38:59;;;;;;;19.67;10.95;;;0.20;99.90;;;;;;5093265;28;20064;-42
2022/03/08 03:41:25;;;;;;;20.83;11.63;;;0.30;99.90;;;;;;5093163;28;20407;-43
2022/03/08 03:43:50;;;;;;;20.17;11.43;;;0.20;99.90;;;;;;5092361;28;20035;-44
2022/03/08 03:46:16;;;;;;;19.65;11.15;;;0.20;99.90;;;;;;5092962;28;20061;-42
2022/03/08 03:48:42;;;;;;;22.65;11.88;;;0.20;99.90;;;;;;5091502;28;20071;-44
2022/03/08 03:51:08;;;;;;;21.58;11.88;;;0.20;99.90;;;;;;5091981;28;20119;-44
2022/03/08 03:53:33;;;;;;;20.73;12.27;;;0.10;99.90;;;;;;5092758;28;20479;-44
2022/03/08 03:55:59;;;;;;;20.58;11.52;;;0.10;99.90;;;;;;5092686;28;20044;-43
2022/03/08 03:58:25;;;;;;;20.25;11.57;;;0.10;99.90;;;;;;5092619;28;20063;-42
2022/03/08 04:00:50;;;;;;;27.52;12.27;;;0.10;99.90;;;;;;5092900;28;20036;-44
2022/03/08 04:03:18;;;;;;;21.05;12.35;;;0.10;99.90;;;;;;5092325;28;20055;-44
2022/03/08 04:05:44;;;;;;;21.60;12.43;;;0.00;99.90;;;;;;5092720;28;20122;-42
2022/03/08 04:08:10;;;;;;;23.30;12.70;;;0.00;99.90;;;;;;5092581;28;20555;-45
2022/03/08 04:10:37;;;;;;;21.60;12.48;;;0.00;99.90;;;;;;5092710;28;20038;-46
2022/03/08 04:13:03;;;;;;;20.75;12.10;;;0.00;99.90;;;;;;5092267;28;20089;-43
2022/03/08 04:15:29;;;;;;;22.83;13.23;;;-0.10;99.90;;;;;;5092336;28;20414;-43
2022/03/08 04:17:55;;;;;;;23.80;13.00;;;-0.10;99.90;;;;;;5090980;28;20040;-42
2022/03/08 04:20:20;;;;;;;21.70;12.38;;;-0.10;99.90;;;;;;5092349;28;20093;-44
2022/03/08 04:22:46;;;;;;;23.98;12.38;;;-0.10;99.90;;;;;;5091664;28;20040;-45
2022/03/08 04:25:12;;;;;;;20.88;12.80;;;-0.10;99.90;;;;;;5090777;28;20387;-44
2022/03/08 04:27:38;;;;;;;22.38;12.48;;;-0.10;99.90;;;;;;5091879;28;20398;-41
2022/03/08 04:30:07;;;;;;;24.15;11.88;;;-0.20;99.90;;;;;;5090799;28;20547;-44
2022/03/08 04:32:32;;;;;;;22.08;12.60;;;-0.20;99.90;;;;;;5092227;28;20064;-42
2022/03/08 04:34:58;;;;;;;23.23;12.90;;;-0.20;99.90;;;;;;5091782;28;20080;-44
2022/03/08 04:37:24;;;;;;;22.73;12.10;;;-0.20;99.90;;;;;;5092179;28;20048;-41
2022/03/08 04:39:49;;;;;;;23.00;12.43;;;-0.20;99.90;;;;;;5091543;28;20387;-43
2022/03/08 04:42:15;;;;;;;23.95;12.63;;;-0.20;99.90;;;;;;5092039;28;20036;-46
2022/03/08 04:44:41;;;;;;;21.40;13.15;;;-0.30;99.90;;;;;;5091418;28;20036;-43
2022/03/08 04:47:07;;;;;;;24.85;13.13;;;-0.20;99.90;;;;;;5091623;28;20119;-42
2022/03/08 04:49:32;;;;;;;24.05;12.77;;;-0.30;99.90;;;;;;5091925;28;20472;-43
2022/03/08 04:51:58;;;;;;;23.02;13.18;;;-0.30;99.90;;;;;;5091385;28;20032;-42
2022/03/08 04:54:24;;;;;;;24.17;13.00;;;-0.30;99.90;;;;;;5091513;28;20036;-44
2022/03/08 04:56:49;;;;;;;21.60;12.23;;;-0.30;99.90;;;;;;5091669;28;20040;-41
2022/03/08 04:59:15;;;;;;;25.15;12.93;;;-0.40;99.90;;;;;;5091426;28;20082;-43
2022/03/08 05:01:41;;;;;;;26.65;13.57;;;-0.40;99.90;;;;;;5086814;28;20040;-44
2022/03/08 05:04:06;;;;;;;23.05;12.18;;;-0.40;99.90;;;;;;5088330;28;20039;-44
2022/03/08 05:06:32;;;;;;;22.02;12.48;;;-0.50;99.90;;;;;;5090828;28;20040;-42
2022/03/08 05:08:58;;;;;;;24.45;13.90;;;-0.50;99.90;;;;;;5090230;28;20113;-44
2022/03/08 05:11:24;;;;;;;24.13;13.32;;;-0.40;99.90;;;;;;5088508;28;20075;-44
2022/03/08 05:13:50;;;;;;;22.73;12.98;;;-0.40;99.90;;;;;;5090821;28;20094;-43
2022/03/08 05:16:16;;;;;;;26.05;13.13;;;-0.50;99.90;;;;;;5090813;28;20419;-44
2022/03/08 05:18:41;;;;;;;22.83;13.50;;;-0.50;99.90;;;;;;5089272;28;20035;-43
2022/03/08 05:21:07;;;;;;;26.08;13.32;;;-0.50;99.90;;;;;;5090197;28;20119;-47
2022/03/08 05:23:33;;;;;;;24.45;12.85;;;-0.40;99.90;;;;;;5090392;28;20552;-42
2022/03/08 05:25:58;;;;;;;23.88;13.45;;;-0.40;99.90;;;;;;5090799;28;20101;-48
2022/03/08 05:28:24;;;;;;;24.92;14.07;;;-0.50;99.90;;;;;;5088934;28;20060;-46
2022/03/08 05:30:50;;;;;;;26.25;13.20;;;-0.60;99.90;;;;;;5089078;28;20475;-44
2022/03/08 05:33:17;;;;;;;24.63;12.55;;;-0.60;99.90;;;;;;5088250;28;20093;-43
2022/03/08 05:35:42;;;;;;;21.77;12.98;;;-0.50;99.90;;;;;;5090259;28;20048;-41
2022/03/08 05:38:08;;;;;;;24.45;13.30;;;-0.60;99.90;;;;;;5090720;28;20621;-42
2022/03/08 05:40:34;;;;;;;28.05;14.30;;;-0.60;99.90;;;;;;5090928;28;20036;-45
2022/03/08 05:43:01;;;;;;;23.35;13.65;;;-0.60;99.90;;;;;;5090447;28;20117;-41
2022/03/08 05:45:27;;;;;;;24.10;13.55;;;-0.60;99.90;;;;;;5090424;28;20422;-42
2022/03/08 05:47:53;;;;;;;26.23;13.55;;;-0.60;99.90;;;;;;5087903;28;20248;-43
2022/03/08 05:50:19;;;;;;;24.48;14.05;;;-0.70;99.90;;;;;;5089532;28;20165;-42
2022/03/08 05:52:44;;;;;;;24.50;13.88;;;-0.60;99.90;;;;;;5088327;28;20051;-46
2022/03/08 05:55:11;;;;;;;23.98;14.20;;;-0.60;99.90;;;;;;5090308;28;20040;-42
2022/03/08 05:57:36;;;;;;;24.70;13.70;;;-0.60;99.90;;;;;;5089839;28;20035;-41
2022/03/08 06:00:04;;;;;;;23.33;13.35;;;-0.70;99.90;;;;;;5088535;28;20036;-45
2022/03/08 06:02:30;;;;;;;26.08;14.02;;;-0.60;99.90;;;;;;5090052;28;20084;-44
2022/03/08 06:04:55;;;;;;;23.40;13.95;;;-0.60;99.90;;;;;;5089700;28;20479;-42
2022/03/08 06:07:21;;;;;;;26.30;13.55;;;-0.60;99.90;;;;;;5089982;28;20631;-45
2022/03/08 06:09:47;;;;;;;25.17;13.55;;;-0.60;99.90;;;;;;5090253;28;20071;-43
2022/03/08 06:12:13;;;;;;;21.08;13.00;;;-0.70;99.90;;;;;;5089621;28;20028;-45
2022/03/08 06:14:39;;;;;;;24.67;13.48;;;-0.60;99.90;;;;;;5089938;28;20032;-42
2022/03/08 06:17:06;;;;;;;23.88;13.27;;;-0.70;99.90;;;;;;5089827;28;20331;-46
2022/03/08 06:19:33;;;;;;;21.92;13.77;;;-0.60;99.90;;;;;;5090174;28;20085;-44
2022/03/08 06:21:59;;;;;;;26.95;14.57;;;-0.50;99.90;;;;;;5089907;28;20028;-42
2022/03/08 06:24:24;;;;;;;25.52;13.55;;;-0.60;99.90;;;;;;5090378;28;20044;-42
2022/03/08 06:26:50;;;;;;;25.88;13.98;;;-0.60;99.90;;;;;;5090125;28;20119;-44
2022/03/08 06:29:16;;;;;;;24.25;14.05;;;-0.60;99.90;;;;;;5090121;28;20040;-45
2022/03/08 06:31:41;;;;;;;25.27;13.68;;;-0.70;99.90;;;;;;5086513;28;20083;-44
2022/03/08 06:34:07;;;;;;;24.67;13.82;;;-0.60;99.90;;;;;;5087400;28;20471;-42
2022/03/08 06:36:34;;;;;;;25.67;14.10;;;-0.30;99.90;;;;;;5089572;28;20081;-42
2022/03/08 06:39:00;;;;;;;26.73;13.73;;;-0.50;99.90;;;;;;5087276;28;20043;-42
2022/03/08 06:41:27;;;;;;;26.17;13.85;;;-0.50;99.90;;;;;;5090099;28;20036;-45
2022/03/08 06:43:53;;;;;;;26.48;14.48;;;-0.50;99.90;;;;;;5090128;28;20150;-42
2022/03/08 06:46:18;;;;;;;22.95;13.50;;;-0.40;99.90;;;;;;5089854;28;20134;-43
2022/03/08 06:48:44;;;;;;;25.70;14.05;;;-0.40;99.90;;;;;;5089760;28;20044;-44
2022/03/08 06:51:10;;;;;;;27.05;14.65;;;-0.40;99.90;;;;;;5089703;28;20047;-42
2022/03/08 06:53:35;;;;;;;26.02;13.48;;;-0.40;99.90;;;;;;5089189;28;20491;-41
2022/03/08 06:56:01;;;;;;;27.40;14.52;;;-0.30;99.90;;;;;;5089862;28;20481;-41
2022/03/08 06:58:27;;;;;;;24.38;12.95;;;-0.30;99.90;;;;;;5089998;28;20055;-43
2022/03/08 07:00:53;;;;;;;26.63;13.85;;;-0.30;99.90;;;;;;5089522;28;20032;-42
2022/03/08 07:03:19;;;;;;;24.77;14.00;;;-0.30;99.90;;;;;;5089764;28;20379;-42
2022/03/08 07:05:46;;;;;;;23.23;14.02;;;-0.20;99.90;;;;;;5088005;28;20044;-47
2022/03/08 07:08:12;;;;;;;23.88;13.35;;;-0.20;99.90;;;;;;5089720;28;20373;-45
2022/03/08 07:10:38;;;;;;;25.25;13.43;;;-0.10;99.90;;;;;;5089723;28;20039;-44
2022/03/08 07:13:04;;;;;;;26.95;13.65;;;-0.10;99.90;;;;;;5089427;28;20036;-40
2022/03/08 07:15:30;;;;;;;24.55;13.57;;;0.00;99.90;;;;;;5089774;28;20043;-43
2022/03/08 07:17:56;;;;;;;22.58;13.13;;;0.10;99.90;;;;;;5085433;28;20119;-44
2022/03/08 07:20:21;;;;;;;23.92;13.95;;;0.10;99.90;;;;;;5087681;28;20591;-45
2022/03/08 07:22:47;;;;;;;23.55;13.73;;;0.20;99.90;;;;;;5084912;28;20117;-43
2022/03/08 07:25:15;;;;;;;21.88;12.90;;;0.20;99.90;;;;;;5084908;28;20168;-41
2022/03/08 07:27:41;;;;;;;21.73;12.80;;;0.40;99.90;;;;;;5083809;28;20079;-44
2022/03/08 07:30:07;;;;;;;22.50;13.20;;;0.40;99.90;;;;;;5082990;28;20042;-43
2022/03/08 07:32:33;;;;;;;21.80;13.32;;;0.60;99.90;;;;;;5081361;28;20033;-44
2022/03/08 07:34:59;;;;;;;21.05;13.15;;;0.60;99.90;;;;;;5083468;28;20036;-44
2022/03/08 07:37:25;;;;;;;19.50;12.30;;;0.70;99.90;;;;;;5084115;28;20036;-44
2022/03/08 07:39:52;;;;;;;20.02;11.45;;;0.80;99.90;;;;;;5084993;28;20105;-46
2022/03/08 07:42:18;;;;;;;20.65;12.65;;;0.90;99.90;;;;;;5083767;28;20044;-43
2022/03/08 07:44:44;;;;;;;20.90;12.07;;;1.00;99.90;;;;;;5083839;28;20105;-45
2022/03/08 07:47:10;;;;;;;20.00;12.55;;;1.00;99.90;;;;;;5079549;28;20043;-42
2022/03/08 07:49:36;;;;;;;21.85;12.82;;;1.10;99.90;;;;;;5080269;28;20546;-44
2022/03/08 07:52:02;;;;;;;21.80;11.95;;;1.20;99.90;;;;;;5082957;28;20054;-45
2022/03/08 07:54:27;;;;;;;18.88;12.13;;;1.30;99.90;;;;;;5084454;28;20143;-46
2022/03/08 07:56:53;;;;;;;22.02;12.52;;;1.30;99.90;;;;;;5083850;28;20044;-45
2022/03/08 07:59:19;;;;;;;18.23;11.10;;;1.40;99.90;;;;;;5083124;28;20363;-42
2022/03/08 08:01:44;;;;;;;19.95;11.98;;;1.50;99.90;;;;;;5084206;28;20032;-45
2022/03/08 08:04:10;;;;;;;18.17;11.60;;;1.60;99.90;;;;;;5080580;28;20036;-46
2022/03/08 08:06:36;;;;;;;22.38;12.60;;;1.70;99.90;;;;;;5083607;28;20036;-44
2022/03/08 08:09:02;;;;;;;19.20;12.10;;;1.80;99.90;;;;;;5081728;28;21899;-42
2022/03/08 08:11:28;;;;;;;18.92;11.77;;;1.90;99.90;;;;;;5081580;28;20044;-43
2022/03/08 08:13:54;;;;;;;17.83;11.60;;;2.10;99.90;;;;;;5081263;28;20549;-44
2022/03/08 08:16:20;;;;;;;21.65;11.73;;;2.10;99.90;;;;;;5080660;28;20095;-45
2022/03/08 08:18:46;;;;;;;15.80;10.63;;;2.20;99.90;;;;;;5080164;28;20036;-48
2022/03/08 08:21:12;;;;;;;17.73;10.75;;;2.30;99.90;;;;;;5081837;28;20251;-44
2022/03/08 08:23:38;;;;;;;19.83;10.82;;;2.40;99.90;;;;;;5081341;28;20028;-45
2022/03/08 08:26:03;;;;;;;17.65;10.85;;;2.40;99.90;;;;;;5083600;28;20032;-44
2022/03/08 08:28:29;;;;;;;17.30;10.85;;;2.60;99.90;;;;;;5083419;28;20491;-44
2022/03/08 08:30:55;;;;;;;18.52;11.15;;;2.70;99.90;;;;;;5081401;28;20223;-42
2022/03/08 08:33:20;;;;;;;16.98;10.75;;;2.70;99.90;;;;;;5081640;28;20028;-43
2022/03/08 08:35:47;;;;;;;16.90;11.20;;;2.80;99.90;;;;;;5080260;28;20070;-45
2022/03/08 08:38:14;;;;;;;17.20;10.13;;;2.90;99.90;;;;;;5081826;28;20028;-43
2022/03/08 08:40:39;;;;;;;16.83;10.70;;;3.10;99.90;;;;;;5082062;28;20105;-45
2022/03/08 08:43:06;;;;;;;17.40;9.82;;;3.20;99.90;;;;;;5088763;28;20480;-43
2022/03/08 08:45:34;;;;;;;17.65;10.55;;;3.30;99.90;;;;;;5090801;28;20044;-43
2022/03/08 08:47:59;;;;;;;15.35;9.45;;;3.50;99.90;;;;;;5087948;28;20391;-44
2022/03/08 08:50:25;;;;;;;14.85;9.32;;;3.70;99.90;;;;;;5088496;28;20047;-44
2022/03/08 08:52:51;;;;;;;17.98;9.55;;;3.80;99.90;;;;;;5090571;28;20178;-42
2022/03/08 08:55:17;;;;;;;14.63;9.13;;;3.90;99.90;;;;;;5090988;28;22010;-44
2022/03/08 08:57:43;;;;;;;13.30;8.75;;;4.10;99.90;;;;;;5090969;28;20040;-44
2022/03/08 09:00:09;;;;;;;12.60;8.23;;;4.20;99.90;;;;;;5090505;28;20400;-42
2022/03/08 09:02:35;;;;;;;13.98;8.60;;;4.40;99.90;;;;;;5090684;28;20035;-43
2022/03/08 09:05:01;;;;;;;12.43;7.93;;;4.50;99.90;;;;;;5091170;28;20498;-40
2022/03/08 09:07:26;;;;;;;17.00;8.45;;;4.70;99.90;;;;;;5082316;28;20059;-42
2022/03/08 09:09:52;;;;;;;14.18;8.25;;;4.80;99.90;;;;;;5080928;28;20044;-46
2022/03/08 09:12:18;;;;;;;11.55;8.20;;;4.90;99.90;;;;;;5081135;28;20127;-43
2022/03/08 09:14:43;;;;;;;10.85;7.38;;;5.00;99.90;;;;;;5047984;28;20371;-42
2022/03/08 09:17:09;;;;;;;16.00;7.40;;;5.20;99.90;;;;;;5081555;28;20410;-43
2022/03/08 09:19:35;;;;;;;11.82;7.70;;;5.40;99.90;;;;;;5108056;27;20070;-42
2022/03/08 09:22:01;;;;;;;11.93;7.20;;;5.50;99.90;;;;;;5081637;28;20029;-45
2022/03/08 09:24:26;;;;;;;11.75;6.97;;;5.70;99.90;;;;;;5079754;28;20082;-44
2022/03/08 09:26:52;;;;;;;12.05;7.03;;;5.70;99.90;;;;;;5081346;28;20040;-45
2022/03/08 09:29:18;;;;;;;10.50;6.35;;;5.80;99.90;;;;;;5080338;28;20104;-44
2022/03/08 09:31:44;;;;;;;10.60;6.18;;;6.00;99.90;;;;;;5081004;28;20036;-42
2022/03/08 09:34:10;;;;;;;12.90;7.07;;;6.00;99.90;;;;;;5081080;28;20065;-45
2022/03/08 09:36:37;;;;;;;9.25;6.55;;;6.00;99.90;;;;;;5081257;28;20040;-45
2022/03/08 09:39:06;;;;;;;8.77;5.90;;;6.20;99.90;;;;;;5079436;28;20168;-44
2022/03/08 09:41:32;;;;;;;9.57;5.90;;;6.30;99.90;;;;;;5079836;28;20040;-44
2022/03/08 09:43:59;;;;;;;9.52;5.85;;;6.40;99.90;;;;;;5076486;28;20036;-41
2022/03/08 09:46:25;;;;;;;9.52;5.95;;;6.50;99.90;;;;;;5075475;28;20478;-44
2022/03/08 09:48:51;;;;;;;9.98;5.93;;;6.60;98.90;;;;;;5076830;28;20062;-46
2022/03/08 09:51:17;;;;;;;9.63;5.88;;;6.50;98.90;;;;;;5068128;28;20044;-46
2022/03/08 09:53:52;;;;;;;11.48;6.45;;;6.70;99.40;;;;;;5098004;27;20120;-45
2022/03/08 09:56:19;;;;;;;10.15;5.85;;;6.70;99.50;;;;;;5073103;28;20043;-44
2022/03/08 09:58:44;;;;;;;9.07;5.80;;;6.70;99.30;;;;;;5078900;28;20040;-44
2022/03/08 10:01:10;;;;;;;11.07;6.05;;;6.70;98.10;;;;;;5085403;28;20043;-40
2022/03/08 10:03:39;;;;;;;9.52;5.97;;;6.70;97.50;;;;;;5078774;28;20044;-40
2022/03/08 10:06:06;;;;;;;12.52;6.75;;;6.80;98.50;;;;;;5075463;28;20044;-43
2022/03/08 10:08:32;;;;;;;9.15;5.50;;;6.90;98.70;;;;;;5075297;28;20044;-45
2022/03/08 10:11:07;;;;;;;11.07;6.63;;;6.90;98.30;;;;;;5081634;28;20527;-47
2022/03/08 10:13:38;;;;;;;9.18;6.30;;;6.90;99.50;;;;;;5081404;28;20040;-43
2022/03/08 10:16:23;;;;;;;12.60;6.60;;;6.90;98.10;;;;;;5077984;28;20069;-43
2022/03/08 10:18:53;;;;;;;;;;;7.00;97.80;;;;;;5078952;28;20090;-42
2022/03/08 10:21:47;;;;;;;9.95;6.15;;;7.00;96.80;;;;;;5086195;28;19916;-42
2022/03/08 10:24:25;;;;;;;10.45;6.75;;;7.10;98.00;;;;;;5081562;28;20123;-46
2022/03/08 10:27:03;;;;;;;9.07;6.18;;;7.10;96.90;;;;;;5087424;28;20039;-43
2022/03/08 10:29:30;;;;;;;10.35;6.38;;;7.30;97.70;;;;;;5084470;28;20159;-41
2022/03/08 10:32:10;;;;;;;8.63;5.60;;;7.30;95.90;;;;;;5080916;28;20032;-40
2022/03/08 10:34:38;;;;;;;10.02;6.18;;;7.40;96.20;;;;;;5081886;28;20051;-40
2022/03/08 10:37:07;;;;;;;9.45;6.00;;;7.50;95.40;;;;;;5087734;28;20158;-42
2022/03/08 10:39:34;;;;;;;8.10;5.57;;;7.50;95.80;;;;;;5082478;28;20031;-41
2022/03/08 10:42:00;;;;;;;9.75;6.40;;;7.70;93.10;;;;;;5082966;28;20532;-41
2022/03/08 10:44:41;;;;;;;10.60;6.20;;;7.80;93.60;;;;;;5083919;28;20036;-43
2022/03/08 10:47:11;;;;;;;9.15;5.80;;;7.90;92.30;;;;;;5086788;28;20044;-43
2022/03/08 10:49:47;;;;;;;8.35;5.50;;;8.10;94.00;;;;;;5084716;28;20069;-42
2022/03/08 10:52:13;;;;;;;9.38;6.22;;;8.20;90.90;;;;;;5084139;28;20065;-42
2022/03/08 10:54:38;;;;;;;8.65;5.40;;;8.40;93.50;;;;;;5087175;28;20542;-42
2022/03/08 10:57:04;;;;;;;8.07;5.35;;;8.40;91.90;;;;;;5085079;28;20040;-43
2022/03/08 10:59:30;;;;;;;11.35;5.50;;;8.50;89.20;;;;;;5082409;28;20058;-41
2022/03/08 11:01:56;;;;;;;7.72;5.35;;;8.70;91.40;;;;;;5087630;28;20950;-42
2022/03/08 11:04:23;;;;;;;8.75;5.35;;;8.70;87.80;;;;;;5090832;28;20028;-44
2022/03/08 11:06:52;;;;;;;12.02;5.63;;;8.70;85.90;;;;;;5086650;28;20347;-42
2022/03/08 11:09:18;;;;;;;11.25;5.78;;;8.90;86.50;;;;;;5085100;28;20511;-46
2022/03/08 11:11:44;;;;;;;9.52;5.30;;;8.80;83.70;;;;;;5087466;28;20079;-43
2022/03/08 11:14:11;;;;;;;7.38;4.72;;;8.90;84.10;;;;;;5090093;28;20044;-42
2022/03/08 11:16:38;;;;;;;8.10;5.07;;;8.90;80.20;;;;;;5086816;28;20040;-45
2022/03/08 11:19:05;;;;;;;9.57;5.35;;;8.90;81.80;;;;;;5085160;28;20036;-44
2022/03/08 11:21:33;;;;;;;8.40;4.93;;;9.00;80.40;;;;;;5090346;28;20665;-43
2022/03/08 11:24:00;;;;;;;8.77;5.50;;;9.10;79.70;;;;;;5087283;28;20047;-43
2022/03/08 11:26:26;;;;;;;8.30;5.43;;;9.10;79.00;;;;;;5086610;28;20378;-46
2022/03/08 11:28:53;;;;;;;8.68;5.18;;;9.10;78.00;;;;;;5091139;28;20056;-43
2022/03/08 11:31:24;;;;;;;7.68;4.80;;;9.30;84.20;;;;;;5084925;28;20132;-47
2022/03/08 11:34:00;;;;;;;8.18;5.05;;;9.40;81.20;;;;;;5082734;28;20059;-47
2022/03/08 11:37:01;;;;;;;8.32;4.88;;;9.50;73.20;;;;;;5081384;28;20046;-42
2022/03/08 11:39:31;;;;;;;6.75;4.72;;;9.80;78.00;;;;;;5076218;28;20060;-46
2022/03/08 11:42:20;;;;;;;6.72;4.40;;;9.90;70.90;;;;;;5081970;28;20031;-43
2022/03/08 11:45:05;;;;;;;10.38;5.07;;;9.90;66.90;;;;;;5087484;28;20059;-45
2022/03/08 11:47:36;;;;;;;6.88;4.53;;;10.20;68.70;;;;;;5087690;28;20044;-46
2022/03/08 11:50:04;;;;;;;6.82;5.05;;;10.40;68.70;;;;;;5081665;28;20032;-43
2022/03/08 11:52:36;;;;;;;7.50;4.90;;;10.50;71.40;;;;;;5084589;28;20450;-45
2022/03/08 11:55:09;;;;;;;8.80;4.93;;;10.50;66.50;;;;;;5087702;28;20039;-42
2022/03/08 11:57:47;;;;;;;7.22;4.63;;;10.60;66.60;;;;;;5086118;28;20068;-44
2022/03/08 12:00:42;;;;;;;8.35;4.97;;;10.80;64.30;;;;;;5086915;28;20035;-42
2022/03/08 12:03:09;;;;;;;;;;;10.80;63.00;;;;;;5088734;28;20051;-41
2022/03/08 12:05:40;;;;;;;9.32;4.60;;;10.90;62.40;;;;;;5088011;28;19995;-43
2022/03/08 12:08:27;;;;;;;8.07;5.03;;;10.90;63.50;;;;;;5084129;28;20104;-42
2022/03/08 12:11:01;;;;;;;7.88;4.95;;;11.20;65.50;;;;;;5084223;28;20482;-44
2022/03/08 12:13:35;;;;;;;8.82;5.43;;;11.30;63.50;;;;;;5082403;28;20036;-42
2022/03/08 12:16:08;;;;;;;12.23;4.95;;;11.30;61.90;;;;;;5083558;28;20047;-44
2022/03/08 12:18:49;;;;;;;8.10;4.53;;;11.40;59.70;;;;;;5081936;28;20040;-45
2022/03/08 12:21:19;;;;;;;9.55;4.63;;;11.50;62.20;;;;;;5082839;28;20040;-45
2022/03/08 12:23:54;;;;;;;8.75;5.07;;;11.50;59.70;;;;;;5084085;28;20414;-47
2022/03/08 12:26:33;;;;;;;8.15;4.50;;;11.50;58.20;;;;;;5080606;28;20522;-43
2022/03/08 12:29:11;;;;;;;7.97;4.25;;;11.60;57.80;;;;;;5083162;28;20067;-45
2022/03/08 12:32:09;;;;;;;6.82;4.70;;;11.60;60.40;;;;;;5084233;28;20490;-41
2022/03/08 12:34:35;;;;;;;7.47;4.45;;;11.70;57.50;;;;;;5081126;28;20040;-44
2022/03/08 12:37:06;;;;;;;6.13;4.18;;;11.80;57.70;;;;;;5084011;28;20044;-41
2022/03/08 12:39:53;;;;;;;7.15;4.57;;;12.00;57.40;;;;;;5083928;28;20063;-47
2022/03/08 12:42:26;;;;;;;7.93;4.25;;;11.90;56.50;;;;;;5082861;28;20040;-41